sensor_id;sensor_type;location;lat;lon;timestamp;pressure;altitude;pressure_sealevel;temperature;humidity
62926;BME280;55732;52.248;-0.844;2022-12-08T00:01:19;100718.20;;;-1.22;87.97
62926;BME280;55732;52.248;-0.844;2022-12-08T00:03:45;100716.40;;;-1.20;87.85
62926;BME280;55732;52.248;-0.844;2022-12-08T00:06:38;100714.18;;;-1.19;87.86
62926;BME280;55732;52.248;-0.844;2022-12-08T00:11:59;100707.11;;;-1.19;87.79
62926;BME280;55732;52.248;-0.844;2022-12-08T00:14:29;100706.02;;;-1.20;87.73
62926;BME280;55732;52.248;-0.844;2022-12-08T00:16:55;100707.52;;;-1.21;87.81
62926;BME280;55732;52.248;-0.844;2022-12-08T00:19:22;100702.45;;;-1.22;87.80
62926;BME280;55732;52.248;-0.844;2022-12-08T00:21:48;100700.65;;;-1.23;87.81
62926;BME280;55732;52.248;-0.844;2022-12-08T00:24:13;100695.39;;;-1.25;87.82
62926;BME280;55732;52.248;-0.844;2022-12-08T00:26:39;100691.01;;;-1.26;87.85
62926;BME280;55732;52.248;-0.844;2022-12-08T00:29:05;100692.04;;;-1.26;87.94
62926;BME280;55732;52.248;-0.844;2022-12-08T00:31:30;100691.38;;;-1.26;87.90
62926;BME280;55732;52.248;-0.844;2022-12-08T00:33:57;100685.36;;;-1.26;87.95
62926;BME280;55732;52.248;-0.844;2022-12-08T00:36:22;100684.28;;;-1.26;87.88
62926;BME280;55732;52.248;-0.844;2022-12-08T00:38:48;100679.27;;;-1.26;87.83
62926;BME280;55732;52.248;-0.844;2022-12-08T00:41:17;100673.20;;;-1.27;87.93
62926;BME280;55732;52.248;-0.844;2022-12-08T00:43:43;100668.66;;;-1.28;87.86
62926;BME280;55732;52.248;-0.844;2022-12-08T00:46:09;100663.11;;;-1.28;87.83
62926;BME280;55732;52.248;-0.844;2022-12-08T00:48:34;100663.11;;;-1.28;87.87
62926;BME280;55732;52.248;-0.844;2022-12-08T00:51:00;100665.85;;;-1.29;87.80
62926;BME280;55732;52.248;-0.844;2022-12-08T00:53:26;100658.40;;;-1.29;87.83
62926;BME280;55732;52.248;-0.844;2022-12-08T00:55:51;100654.77;;;-1.29;87.90
62926;BME280;55732;52.248;-0.844;2022-12-08T00:58:17;100654.41;;;-1.30;87.80
62926;BME280;55732;52.248;-0.844;2022-12-08T01:00:43;100649.31;;;-1.32;87.75
62926;BME280;55732;52.248;-0.844;2022-12-08T01:03:10;100643.59;;;-1.32;87.92
62926;BME280;55732;52.248;-0.844;2022-12-08T01:05:36;100634.55;;;-1.37;87.99
62926;BME280;55732;52.248;-0.844;2022-12-08T01:08:04;100637.30;;;-1.34;87.91
62926;BME280;55732;52.248;-0.844;2022-12-08T01:10:30;100631.75;;;-1.34;87.87
62926;BME280;55732;52.248;-0.844;2022-12-08T01:12:57;100629.81;;;-1.35;87.94
62926;BME280;55732;52.248;-0.844;2022-12-08T01:15:22;100628.80;;;-1.34;87.93
62926;BME280;55732;52.248;-0.844;2022-12-08T01:17:48;100618.70;;;-1.40;87.91
62926;BME280;55732;52.248;-0.844;2022-12-08T01:20:13;100626.36;;;-1.35;87.96
62926;BME280;55732;52.248;-0.844;2022-12-08T01:22:39;100627.02;;;-1.35;87.98
62926;BME280;55732;52.248;-0.844;2022-12-08T01:25:05;100631.30;;;-1.36;87.89
62926;BME280;55732;52.248;-0.844;2022-12-08T01:27:31;100629.29;;;-1.38;87.92
62926;BME280;55732;52.248;-0.844;2022-12-08T01:29:56;100632.84;;;-1.40;87.86
62926;BME280;55732;52.248;-0.844;2022-12-08T01:32:21;100634.33;;;-1.41;88.00
62926;BME280;55732;52.248;-0.844;2022-12-08T01:34:47;100627.08;;;-1.41;88.12
62926;BME280;55732;52.248;-0.844;2022-12-08T01:37:12;100627.80;;;-1.41;88.14
62926;BME280;55732;52.248;-0.844;2022-12-08T01:39:38;100626.06;;;-1.41;88.19
62926;BME280;55732;52.248;-0.844;2022-12-08T01:42:10;100621.77;;;-1.40;88.29
62926;BME280;55732;52.248;-0.844;2022-12-08T01:47:07;100620.57;;;-1.40;88.40
62926;BME280;55732;52.248;-0.844;2022-12-08T01:49:33;100617.52;;;-1.39;88.43
62926;BME280;55732;52.248;-0.844;2022-12-08T01:52:14;100616.02;;;-1.38;88.45
62926;BME280;55732;52.248;-0.844;2022-12-08T01:55:01;100615.52;;;-1.37;88.52
62926;BME280;55732;52.248;-0.844;2022-12-08T01:57:40;100611.91;;;-1.37;88.42
62926;BME280;55732;52.248;-0.844;2022-12-08T02:00:11;100611.59;;;-1.37;88.43
62926;BME280;55732;52.248;-0.844;2022-12-08T02:03:01;100611.31;;;-1.35;88.67
62926;BME280;55732;52.248;-0.844;2022-12-08T02:05:30;100609.30;;;-1.34;88.78
62926;BME280;55732;52.248;-0.844;2022-12-08T02:07:59;100612.61;;;-1.33;88.74
62926;BME280;55732;52.248;-0.844;2022-12-08T02:10:28;100612.80;;;-1.33;88.67
62926;BME280;55732;52.248;-0.844;2022-12-08T02:12:55;100608.35;;;-1.32;88.71
62926;BME280;55732;52.248;-0.844;2022-12-08T02:15:24;100604.20;;;-1.32;88.69
62926;BME280;55732;52.248;-0.844;2022-12-08T02:18:36;100607.13;;;-1.33;88.77
62926;BME280;55732;52.248;-0.844;2022-12-08T02:30:10;100585.40;;;-1.35;88.82
62926;BME280;55732;52.248;-0.844;2022-12-08T02:35:22;100585.55;;;-1.36;88.97
62926;BME280;55732;52.248;-0.844;2022-12-08T02:41:13;100584.69;;;-1.36;88.97
62926;BME280;55732;52.248;-0.844;2022-12-08T02:43:44;100585.90;;;-1.36;89.11
62926;BME280;55732;52.248;-0.844;2022-12-08T02:46:20;100580.88;;;-1.36;89.17
62926;BME280;55732;52.248;-0.844;2022-12-08T02:48:47;100577.29;;;-1.36;89.19
62926;BME280;55732;52.248;-0.844;2022-12-08T02:51:14;100576.77;;;-1.35;89.10
62926;BME280;55732;52.248;-0.844;2022-12-08T02:53:40;100574.21;;;-1.35;89.18
62926;BME280;55732;52.248;-0.844;2022-12-08T03:01:43;100563.58;;;-1.33;89.28
62926;BME280;55732;52.248;-0.844;2022-12-08T03:07:10;100566.66;;;-1.34;89.34
62926;BME280;55732;52.248;-0.844;2022-12-08T03:09:45;100560.93;;;-1.34;89.26
62926;BME280;55732;52.248;-0.844;2022-12-08T03:14:48;100552.73;;;-1.36;89.37
62926;BME280;55732;52.248;-0.844;2022-12-08T03:17:16;100549.73;;;-1.38;89.37
62926;BME280;55732;52.248;-0.844;2022-12-08T03:19:45;100550.08;;;-1.38;89.40
62926;BME280;55732;52.248;-0.844;2022-12-08T03:22:13;100546.95;;;-1.38;89.44
62926;BME280;55732;52.248;-0.844;2022-12-08T03:24:44;100542.43;;;-1.38;89.48
62926;BME280;55732;52.248;-0.844;2022-12-08T03:27:14;100536.59;;;-1.38;89.45
62926;BME280;55732;52.248;-0.844;2022-12-08T03:29:44;100535.03;;;-1.38;89.44
62926;BME280;55732;52.248;-0.844;2022-12-08T03:34:46;100531.32;;;-1.40;89.51
62926;BME280;55732;52.248;-0.844;2022-12-08T03:37:13;100532.67;;;-1.40;89.56
62926;BME280;55732;52.248;-0.844;2022-12-08T03:39:39;100526.26;;;-1.41;89.51
62926;BME280;55732;52.248;-0.844;2022-12-08T03:42:04;100524.14;;;-1.42;89.53
62926;BME280;55732;52.248;-0.844;2022-12-08T03:44:29;100521.52;;;-1.43;89.58
62926;BME280;55732;52.248;-0.844;2022-12-08T03:46:55;100516.30;;;-1.44;89.52
62926;BME280;55732;52.248;-0.844;2022-12-08T03:49:20;100513.50;;;-1.44;89.49
62926;BME280;55732;52.248;-0.844;2022-12-08T03:51:46;100517.83;;;-1.44;89.55
62926;BME280;55732;52.248;-0.844;2022-12-08T03:54:11;100515.40;;;-1.44;89.58
62926;BME280;55732;52.248;-0.844;2022-12-08T03:56:38;100515.37;;;-1.46;89.48
62926;BME280;55732;52.248;-0.844;2022-12-08T03:59:05;100514.32;;;-1.46;89.54
62926;BME280;55732;52.248;-0.844;2022-12-08T04:01:31;100512.73;;;-1.47;89.39
62926;BME280;55732;52.248;-0.844;2022-12-08T04:03:57;100507.45;;;-1.49;89.27
62926;BME280;55732;52.248;-0.844;2022-12-08T04:06:23;100504.63;;;-1.50;89.36
62926;BME280;55732;52.248;-0.844;2022-12-08T04:08:49;100505.45;;;-1.51;89.39
62926;BME280;55732;52.248;-0.844;2022-12-08T04:11:15;100504.73;;;-1.51;89.33
62926;BME280;55732;52.248;-0.844;2022-12-08T04:13:41;100505.34;;;-1.53;89.26
62926;BME280;55732;52.248;-0.844;2022-12-08T04:16:12;100503.39;;;-1.55;89.32
62926;BME280;55732;52.248;-0.844;2022-12-08T04:18:38;100505.77;;;-1.56;89.26
62926;BME280;55732;52.248;-0.844;2022-12-08T04:21:04;100502.63;;;-1.56;89.33
62926;BME280;55732;52.248;-0.844;2022-12-08T04:23:29;100502.23;;;-1.57;89.15
62926;BME280;55732;52.248;-0.844;2022-12-08T04:25:55;100499.39;;;-1.59;89.22
62926;BME280;55732;52.248;-0.844;2022-12-08T04:28:20;100496.81;;;-1.62;88.76
62926;BME280;55732;52.248;-0.844;2022-12-08T04:30:47;100491.85;;;-1.65;88.90
62926;BME280;55732;52.248;-0.844;2022-12-08T04:33:12;100494.83;;;-1.68;88.83
62926;BME280;55732;52.248;-0.844;2022-12-08T04:35:38;100492.14;;;-1.70;88.91
62926;BME280;55732;52.248;-0.844;2022-12-08T04:38:03;100492.89;;;-1.72;88.86
62926;BME280;55732;52.248;-0.844;2022-12-08T04:40:29;100488.48;;;-1.74;88.92
62926;BME280;55732;52.248;-0.844;2022-12-08T04:42:54;100480.11;;;-1.76;88.96
62926;BME280;55732;52.248;-0.844;2022-12-08T04:45:19;100482.33;;;-1.76;88.98
62926;BME280;55732;52.248;-0.844;2022-12-08T04:47:45;100481.95;;;-1.77;89.04
62926;BME280;55732;52.248;-0.844;2022-12-08T04:50:10;100481.78;;;-1.77;88.99
62926;BME280;55732;52.248;-0.844;2022-12-08T04:52:37;100477.77;;;-1.79;89.01
62926;BME280;55732;52.248;-0.844;2022-12-08T04:55:03;100475.97;;;-1.80;88.86
62926;BME280;55732;52.248;-0.844;2022-12-08T04:57:29;100475.66;;;-1.83;88.74
62926;BME280;55732;52.248;-0.844;2022-12-08T04:59:54;100475.88;;;-1.85;88.71
62926;BME280;55732;52.248;-0.844;2022-12-08T05:02:19;100475.55;;;-1.89;88.70
62926;BME280;55732;52.248;-0.844;2022-12-08T05:04:46;100475.20;;;-1.93;88.65
62926;BME280;55732;52.248;-0.844;2022-12-08T05:07:11;100477.34;;;-1.95;88.71
62926;BME280;55732;52.248;-0.844;2022-12-08T05:09:37;100472.55;;;-1.98;88.57
62926;BME280;55732;52.248;-0.844;2022-12-08T05:12:03;100468.65;;;-2.00;88.64
62926;BME280;55732;52.248;-0.844;2022-12-08T05:14:28;100464.56;;;-2.03;88.63
62926;BME280;55732;52.248;-0.844;2022-12-08T05:16:53;100464.95;;;-2.05;88.60
62926;BME280;55732;52.248;-0.844;2022-12-08T05:19:19;100462.44;;;-2.07;88.46
62926;BME280;55732;52.248;-0.844;2022-12-08T05:21:44;100461.45;;;-2.10;88.59
62926;BME280;55732;52.248;-0.844;2022-12-08T05:24:10;100466.00;;;-2.12;88.56
62926;BME280;55732;52.248;-0.844;2022-12-08T05:26:35;100464.84;;;-2.15;88.47
62926;BME280;55732;52.248;-0.844;2022-12-08T05:29:01;100462.30;;;-2.18;88.62
62926;BME280;55732;52.248;-0.844;2022-12-08T05:31:26;100460.47;;;-2.20;88.63
62926;BME280;55732;52.248;-0.844;2022-12-08T05:33:52;100454.64;;;-2.23;88.52
62926;BME280;55732;52.248;-0.844;2022-12-08T05:36:18;100458.17;;;-2.25;88.49
62926;BME280;55732;52.248;-0.844;2022-12-08T05:38:44;100458.61;;;-2.27;88.66
62926;BME280;55732;52.248;-0.844;2022-12-08T05:41:14;100451.42;;;-2.29;88.70
62926;BME280;55732;52.248;-0.844;2022-12-08T05:43:39;100447.25;;;-2.29;88.83
62926;BME280;55732;52.248;-0.844;2022-12-08T05:46:06;100445.96;;;-2.31;88.82
62926;BME280;55732;52.248;-0.844;2022-12-08T05:48:33;100447.20;;;-2.30;88.94
62926;BME280;55732;52.248;-0.844;2022-12-08T05:50:58;100440.36;;;-2.29;89.10
62926;BME280;55732;52.248;-0.844;2022-12-08T05:53:24;100438.69;;;-2.28;89.18
62926;BME280;55732;52.248;-0.844;2022-12-08T05:55:49;100441.52;;;-2.27;89.27
62926;BME280;55732;52.248;-0.844;2022-12-08T05:58:17;100442.27;;;-2.26;89.24
62926;BME280;55732;52.248;-0.844;2022-12-08T06:00:44;100440.92;;;-2.25;89.25
62926;BME280;55732;52.248;-0.844;2022-12-08T06:03:11;100439.05;;;-2.24;89.26
62926;BME280;55732;52.248;-0.844;2022-12-08T06:05:37;100428.89;;;-2.27;89.31
62926;BME280;55732;52.248;-0.844;2022-12-08T06:08:03;100437.10;;;-2.21;89.37
62926;BME280;55732;52.248;-0.844;2022-12-08T06:10:29;100436.27;;;-2.21;89.22
62926;BME280;55732;52.248;-0.844;2022-12-08T06:12:54;100434.17;;;-2.22;89.25
62926;BME280;55732;52.248;-0.844;2022-12-08T06:15:19;100435.89;;;-2.22;89.36
62926;BME280;55732;52.248;-0.844;2022-12-08T06:17:45;100434.13;;;-2.23;89.26
62926;BME280;55732;52.248;-0.844;2022-12-08T06:20:11;100440.31;;;-2.23;89.39
62926;BME280;55732;52.248;-0.844;2022-12-08T06:22:36;100432.02;;;-2.23;89.28
62926;BME280;55732;52.248;-0.844;2022-12-08T06:25:04;100428.92;;;-2.23;89.22
62926;BME280;55732;52.248;-0.844;2022-12-08T06:27:30;100426.83;;;-2.24;89.16
62926;BME280;55732;52.248;-0.844;2022-12-08T06:29:55;100430.60;;;-2.24;89.05
62926;BME280;55732;52.248;-0.844;2022-12-08T06:32:20;100431.98;;;-2.24;89.19
62926;BME280;55732;52.248;-0.844;2022-12-08T06:34:46;100427.77;;;-2.26;89.13
62926;BME280;55732;52.248;-0.844;2022-12-08T06:37:11;100428.11;;;-2.26;89.26
62926;BME280;55732;52.248;-0.844;2022-12-08T06:39:37;100421.57;;;-2.26;89.35
62926;BME280;55732;52.248;-0.844;2022-12-08T06:42:02;100419.68;;;-2.26;89.44
62926;BME280;55732;52.248;-0.844;2022-12-08T06:44:47;100418.34;;;-2.25;89.42
62926;BME280;55732;52.248;-0.844;2022-12-08T06:47:12;100425.09;;;-2.24;89.53
62926;BME280;55732;52.248;-0.844;2022-12-08T06:49:38;100428.59;;;-2.23;89.46
62926;BME280;55732;52.248;-0.844;2022-12-08T06:52:03;100427.44;;;-2.22;89.50
62926;BME280;55732;52.248;-0.844;2022-12-08T06:54:29;100426.70;;;-2.19;89.44
62926;BME280;55732;52.248;-0.844;2022-12-08T06:56:54;100426.77;;;-2.18;89.31
62926;BME280;55732;52.248;-0.844;2022-12-08T06:59:20;100426.80;;;-2.17;89.35
62926;BME280;55732;52.248;-0.844;2022-12-08T07:01:45;100427.03;;;-2.20;89.23
62926;BME280;55732;52.248;-0.844;2022-12-08T07:04:11;100426.85;;;-2.20;89.38
62926;BME280;55732;52.248;-0.844;2022-12-08T07:06:37;100423.45;;;-2.19;89.55
62926;BME280;55732;52.248;-0.844;2022-12-08T07:09:02;100421.98;;;-2.21;88.89
62926;BME280;55732;52.248;-0.844;2022-12-08T07:11:28;100422.18;;;-2.27;88.61
62926;BME280;55732;52.248;-0.844;2022-12-08T07:13:57;100423.55;;;-2.34;88.52
62926;BME280;55732;52.248;-0.844;2022-12-08T07:16:22;100421.98;;;-2.39;88.82
62926;BME280;55732;52.248;-0.844;2022-12-08T07:18:48;100425.13;;;-2.42;88.83
62926;BME280;55732;52.248;-0.844;2022-12-08T07:21:14;100415.19;;;-2.44;88.92
62926;BME280;55732;52.248;-0.844;2022-12-08T07:23:40;100415.27;;;-2.45;88.93
62926;BME280;55732;52.248;-0.844;2022-12-08T07:26:09;100413.29;;;-2.47;89.00
62926;BME280;55732;52.248;-0.844;2022-12-08T07:28:36;100421.37;;;-2.48;89.20
62926;BME280;55732;52.248;-0.844;2022-12-08T07:31:03;100424.80;;;-2.48;89.15
62926;BME280;55732;52.248;-0.844;2022-12-08T07:33:29;100423.59;;;-2.48;89.17
62926;BME280;55732;52.248;-0.844;2022-12-08T07:35:56;100424.11;;;-2.48;89.20
62926;BME280;55732;52.248;-0.844;2022-12-08T07:38:22;100421.88;;;-2.48;89.22
62926;BME280;55732;52.248;-0.844;2022-12-08T07:40:48;100426.23;;;-2.47;89.03
62926;BME280;55732;52.248;-0.844;2022-12-08T07:43:13;100420.98;;;-2.49;88.61
62926;BME280;55732;52.248;-0.844;2022-12-08T07:45:39;100420.52;;;-2.51;88.51
62926;BME280;55732;52.248;-0.844;2022-12-08T07:48:05;100412.27;;;-2.54;88.41
62926;BME280;55732;52.248;-0.844;2022-12-08T07:50:31;100409.04;;;-2.57;88.46
62926;BME280;55732;52.248;-0.844;2022-12-08T07:52:56;100404.86;;;-2.58;88.44
62926;BME280;55732;52.248;-0.844;2022-12-08T07:55:22;100406.87;;;-2.59;88.37
62926;BME280;55732;52.248;-0.844;2022-12-08T07:57:49;100408.03;;;-2.60;88.37
62926;BME280;55732;52.248;-0.844;2022-12-08T08:00:14;100404.69;;;-2.62;88.29
62926;BME280;55732;52.248;-0.844;2022-12-08T08:02:41;100408.79;;;-2.62;88.32
62926;BME280;55732;52.248;-0.844;2022-12-08T08:05:06;100403.30;;;-2.62;88.52
62926;BME280;55732;52.248;-0.844;2022-12-08T08:07:32;100403.95;;;-2.59;88.76
62926;BME280;55732;52.248;-0.844;2022-12-08T08:09:58;100400.66;;;-2.56;88.75
62926;BME280;55732;52.248;-0.844;2022-12-08T08:12:23;100402.42;;;-2.51;88.72
62926;BME280;55732;52.248;-0.844;2022-12-08T08:14:48;100408.35;;;-2.46;88.81
62926;BME280;55732;52.248;-0.844;2022-12-08T08:17:14;100406.64;;;-2.42;88.57
62926;BME280;55732;52.248;-0.844;2022-12-08T08:19:39;100403.81;;;-2.37;88.72
62926;BME280;55732;52.248;-0.844;2022-12-08T08:22:05;100402.82;;;-2.32;88.59
62926;BME280;55732;52.248;-0.844;2022-12-08T08:24:30;100399.40;;;-2.28;88.18
62926;BME280;55732;52.248;-0.844;2022-12-08T08:26:55;100399.58;;;-2.24;88.24
62926;BME280;55732;52.248;-0.844;2022-12-08T08:29:21;100405.23;;;-2.21;87.91
62926;BME280;55732;52.248;-0.844;2022-12-08T08:31:48;100405.73;;;-2.18;87.74
62926;BME280;55732;52.248;-0.844;2022-12-08T08:34:14;100403.52;;;-2.13;87.84
62926;BME280;55732;52.248;-0.844;2022-12-08T08:36:39;100402.95;;;-2.07;87.78
62926;BME280;55732;52.248;-0.844;2022-12-08T08:39:05;100394.42;;;-2.01;87.77
62926;BME280;55732;52.248;-0.844;2022-12-08T08:41:31;100393.98;;;-1.96;87.86
62926;BME280;55732;52.248;-0.844;2022-12-08T08:43:56;100395.52;;;-1.88;87.81
62926;BME280;55732;52.248;-0.844;2022-12-08T08:46:22;100395.37;;;-1.80;87.80
62926;BME280;55732;52.248;-0.844;2022-12-08T08:48:47;100396.95;;;-1.72;87.66
62926;BME280;55732;52.248;-0.844;2022-12-08T08:51:13;100395.00;;;-1.65;87.48
62926;BME280;55732;52.248;-0.844;2022-12-08T08:53:39;100395.49;;;-1.58;87.65
62926;BME280;55732;52.248;-0.844;2022-12-08T08:56:15;100398.44;;;-1.50;87.73
62926;BME280;55732;52.248;-0.844;2022-12-08T08:58:41;100395.95;;;-1.40;87.76
62926;BME280;55732;52.248;-0.844;2022-12-08T09:01:06;100389.06;;;-1.31;87.64
62926;BME280;55732;52.248;-0.844;2022-12-08T09:03:32;100389.89;;;-1.24;87.43
62926;BME280;55732;52.248;-0.844;2022-12-08T09:05:58;100389.80;;;-1.18;87.35
62926;BME280;55732;52.248;-0.844;2022-12-08T09:08:23;100394.57;;;-1.12;87.37
62926;BME280;55732;52.248;-0.844;2022-12-08T09:10:48;100398.00;;;-1.04;87.40
62926;BME280;55732;52.248;-0.844;2022-12-08T09:13:14;100399.02;;;-0.96;87.33
62926;BME280;55732;52.248;-0.844;2022-12-08T09:15:39;100393.27;;;-0.89;87.28
62926;BME280;55732;52.248;-0.844;2022-12-08T09:18:05;100387.19;;;-0.82;87.24
62926;BME280;55732;52.248;-0.844;2022-12-08T09:20:34;100389.22;;;-0.74;87.21
62926;BME280;55732;52.248;-0.844;2022-12-08T09:22:59;100393.39;;;-0.65;87.30
62926;BME280;55732;52.248;-0.844;2022-12-08T09:25:25;100391.30;;;-0.57;87.09
62926;BME280;55732;52.248;-0.844;2022-12-08T09:27:50;100388.34;;;-0.49;86.95
62926;BME280;55732;52.248;-0.844;2022-12-08T09:30:16;100387.80;;;-0.41;86.97
62926;BME280;55732;52.248;-0.844;2022-12-08T09:32:43;100384.48;;;-0.33;86.80
62926;BME280;55732;52.248;-0.844;2022-12-08T09:35:08;100388.25;;;-0.25;86.72
62926;BME280;55732;52.248;-0.844;2022-12-08T09:37:34;100392.02;;;-0.17;86.46
62926;BME280;55732;52.248;-0.844;2022-12-08T09:39:59;100390.84;;;-0.07;86.62
62926;BME280;55732;52.248;-0.844;2022-12-08T09:42:46;100385.65;;;-0.02;86.28
62926;BME280;55732;52.248;-0.844;2022-12-08T09:45:13;100390.30;;;0.11;86.14
62926;BME280;55732;52.248;-0.844;2022-12-08T09:47:44;100389.27;;;0.21;85.99
62926;BME280;55732;52.248;-0.844;2022-12-08T09:50:17;100392.23;;;0.30;85.98
62926;BME280;55732;52.248;-0.844;2022-12-08T09:55:28;100388.36;;;0.48;85.62
62926;BME280;55732;52.248;-0.844;2022-12-08T09:58:01;100381.08;;;0.57;85.67
62926;BME280;55732;52.248;-0.844;2022-12-08T10:00:27;100376.33;;;0.65;85.38
62926;BME280;55732;52.248;-0.844;2022-12-08T10:02:54;100377.78;;;0.72;85.30
62926;BME280;55732;52.248;-0.844;2022-12-08T10:05:22;100376.69;;;0.81;85.16
62926;BME280;55732;52.248;-0.844;2022-12-08T10:08:06;100373.67;;;0.88;85.12
62926;BME280;55732;52.248;-0.844;2022-12-08T10:10:47;100367.16;;;0.96;85.01
62926;BME280;55732;52.248;-0.844;2022-12-08T10:13:21;100366.04;;;1.04;84.90
62926;BME280;55732;52.248;-0.844;2022-12-08T10:18:32;100361.34;;;1.19;84.72
62926;BME280;55732;52.248;-0.844;2022-12-08T10:21:11;100363.66;;;1.26;84.38
62926;BME280;55732;52.248;-0.844;2022-12-08T10:23:38;100361.31;;;1.34;84.21
62926;BME280;55732;52.248;-0.844;2022-12-08T10:26:09;100364.50;;;1.41;84.09
62926;BME280;55732;52.248;-0.844;2022-12-08T10:28:36;100364.89;;;1.48;83.89
62926;BME280;55732;52.248;-0.844;2022-12-08T10:31:02;100365.05;;;1.54;83.72
62926;BME280;55732;52.248;-0.844;2022-12-08T10:33:31;100364.34;;;1.59;83.77
62926;BME280;55732;52.248;-0.844;2022-12-08T10:35:59;100360.42;;;1.66;83.79
62926;BME280;55732;52.248;-0.844;2022-12-08T10:38:35;100362.39;;;1.73;83.57
62926;BME280;55732;52.248;-0.844;2022-12-08T10:41:19;100361.02;;;1.80;83.34
62926;BME280;55732;52.248;-0.844;2022-12-08T10:43:53;100352.36;;;1.86;83.37
62926;BME280;55732;52.248;-0.844;2022-12-08T10:46:24;100343.98;;;1.91;83.09
62926;BME280;55732;52.248;-0.844;2022-12-08T10:53:59;100328.73;;;2.04;82.80
62926;BME280;55732;52.248;-0.844;2022-12-08T10:56:27;100323.98;;;2.07;82.43
62926;BME280;55732;52.248;-0.844;2022-12-08T10:59:17;100316.40;;;2.09;82.45
62926;BME280;55732;52.248;-0.844;2022-12-08T11:01:50;100314.92;;;2.12;82.55
62926;BME280;55732;52.248;-0.844;2022-12-08T11:04:19;100304.39;;;2.15;82.43
62926;BME280;55732;52.248;-0.844;2022-12-08T11:06:46;100299.24;;;2.17;82.28
62926;BME280;55732;52.248;-0.844;2022-12-08T11:11:56;100305.02;;;2.26;82.06
62926;BME280;55732;52.248;-0.844;2022-12-08T11:17:04;100301.41;;;2.32;81.70
62926;BME280;55732;52.248;-0.844;2022-12-08T11:19:36;100301.14;;;2.35;81.51
62926;BME280;55732;52.248;-0.844;2022-12-08T11:22:20;100294.06;;;2.37;81.44
62926;BME280;55732;52.248;-0.844;2022-12-08T11:27:37;100294.02;;;2.42;81.13
62926;BME280;55732;52.248;-0.844;2022-12-08T11:30:22;100285.71;;;2.43;81.11
62926;BME280;55732;52.248;-0.844;2022-12-08T11:32:59;100286.08;;;2.44;80.81
62926;BME280;55732;52.248;-0.844;2022-12-08T11:37:52;100282.48;;;2.45;80.70
62926;BME280;55732;52.248;-0.844;2022-12-08T11:40:23;100286.19;;;2.48;80.53
62926;BME280;55732;52.248;-0.844;2022-12-08T11:43:15;100283.80;;;2.50;80.49
62926;BME280;55732;52.248;-0.844;2022-12-08T11:45:40;100281.05;;;2.51;80.38
62926;BME280;55732;52.248;-0.844;2022-12-08T11:53:05;100276.98;;;2.62;79.97
62926;BME280;55732;52.248;-0.844;2022-12-08T11:55:40;100276.92;;;2.66;79.69
62926;BME280;55732;52.248;-0.844;2022-12-08T11:58:12;100274.60;;;2.70;79.66
62926;BME280;55732;52.248;-0.844;2022-12-08T12:00:41;100274.27;;;2.71;79.36
62926;BME280;55732;52.248;-0.844;2022-12-08T12:03:35;100265.60;;;2.72;79.07
62926;BME280;55732;52.248;-0.844;2022-12-08T12:06:41;100267.94;;;2.75;78.98
62926;BME280;55732;52.248;-0.844;2022-12-08T12:09:34;100263.39;;;2.80;79.07
62926;BME280;55732;52.248;-0.844;2022-12-08T12:12:25;100264.42;;;2.87;79.06
62926;BME280;55732;52.248;-0.844;2022-12-08T12:20:24;100258.89;;;2.96;78.01
62926;BME280;55732;52.248;-0.844;2022-12-08T12:23:20;100257.76;;;3.00;78.28
62926;BME280;55732;52.248;-0.844;2022-12-08T12:25:58;100257.23;;;3.07;78.09
62926;BME280;55732;52.248;-0.844;2022-12-08T12:28:27;100250.78;;;3.13;77.66
62926;BME280;55732;52.248;-0.844;2022-12-08T12:31:00;100247.23;;;3.18;77.44
62926;BME280;55732;52.248;-0.844;2022-12-08T12:33:29;100249.30;;;3.24;77.29
62926;BME280;55732;52.248;-0.844;2022-12-08T12:35:57;100247.73;;;3.32;77.07
62926;BME280;55732;52.248;-0.844;2022-12-08T12:38:31;100241.11;;;3.39;76.98
62926;BME280;55732;52.248;-0.844;2022-12-08T12:41:41;100242.63;;;3.45;76.62
62926;BME280;55732;52.248;-0.844;2022-12-08T12:57:24;100232.09;;;3.65;76.02
62926;BME280;55732;52.248;-0.844;2022-12-08T13:02:25;100226.82;;;3.72;75.70
62926;BME280;55732;52.248;-0.844;2022-12-08T13:05:16;100221.47;;;3.74;75.65
62926;BME280;55732;52.248;-0.844;2022-12-08T13:07:43;100218.16;;;3.74;75.57
62926;BME280;55732;52.248;-0.844;2022-12-08T13:10:18;100211.36;;;3.73;75.66
62926;BME280;55732;52.248;-0.844;2022-12-08T13:12:45;100210.95;;;3.70;75.39
62926;BME280;55732;52.248;-0.844;2022-12-08T13:15:39;100207.27;;;3.69;75.17
62926;BME280;55732;52.248;-0.844;2022-12-08T13:20:49;100209.49;;;3.68;74.90
62926;BME280;55732;52.248;-0.844;2022-12-08T13:24:12;100207.56;;;3.67;74.89
62926;BME280;55732;52.248;-0.844;2022-12-08T13:26:26;100208.40;;;3.64;74.95
62926;BME280;55732;52.248;-0.844;2022-12-08T13:34:20;100209.25;;;3.55;74.90
62926;BME280;55732;52.248;-0.844;2022-12-08T13:39:43;100210.85;;;3.48;74.90
62926;BME280;55732;52.248;-0.844;2022-12-08T13:44:54;100203.44;;;3.35;75.02
62926;BME280;55732;52.248;-0.844;2022-12-08T13:47:27;100203.25;;;3.27;75.11
62926;BME280;55732;52.248;-0.844;2022-12-08T13:50:51;100208.54;;;3.22;75.33
62926;BME280;55732;52.248;-0.844;2022-12-08T13:53:14;100202.68;;;3.17;75.46
62926;BME280;55732;52.248;-0.844;2022-12-08T13:55:50;100202.66;;;3.16;75.45
62926;BME280;55732;52.248;-0.844;2022-12-08T13:58:25;100199.65;;;3.14;75.54
62926;BME280;55732;52.248;-0.844;2022-12-08T14:03:25;100188.23;;;3.09;75.65
62926;BME280;55732;52.248;-0.844;2022-12-08T14:05:50;100182.77;;;3.05;75.69
62926;BME280;55732;52.248;-0.844;2022-12-08T14:08:32;100180.07;;;3.02;75.66
62926;BME280;55732;52.248;-0.844;2022-12-08T14:11:03;100177.09;;;3.00;75.69
62926;BME280;55732;52.248;-0.844;2022-12-08T14:13:30;100175.48;;;2.99;75.71
62926;BME280;55732;52.248;-0.844;2022-12-08T14:15:57;100175.60;;;2.97;75.70
62926;BME280;55732;52.248;-0.844;2022-12-08T14:18:28;100171.36;;;2.93;75.64
62926;BME280;55732;52.248;-0.844;2022-12-08T14:21:04;100167.74;;;2.87;75.79
62926;BME280;55732;52.248;-0.844;2022-12-08T14:23:33;100169.92;;;2.83;75.98
62926;BME280;55732;52.248;-0.844;2022-12-08T14:25:59;100167.95;;;2.80;76.03
62926;BME280;55732;52.248;-0.844;2022-12-08T14:28:26;100168.02;;;2.77;76.07
62926;BME280;55732;52.248;-0.844;2022-12-08T14:30:54;100165.31;;;2.73;76.09